Time;durP1;ratioP1;P1;durP2;ratioP2;P2;SDS_P1;SDS_P2;PMS_P1;PMS_P2;Temp;Humidity;BMP_temperature;BMP_pressure;BME280_temperature;BME280_humidity;BME280_pressure;Samples;Min_cycle;Max_cycle;Signal;HPM_P1;HPM_P2
2021/01/03 00:01:45;;;;;;;9.32;3.55;;;8.80;96.70;;;;;;5058475;28;21055;-76
2021/01/03 00:04:13;;;;;;;7.30;3.25;;;8.80;96.70;;;;;;5060861;28;20044;-76
2021/01/03 00:06:40;;;;;;;9.18;3.20;;;8.70;96.70;;;;;;5066029;28;20064;-76
2021/01/03 00:09:08;;;;;;;11.55;3.58;;;8.70;96.70;;;;;;5059326;28;20040;-76
2021/01/03 00:11:36;;;;;;;5.10;2.53;;;8.70;96.70;;;;;;5076275;28;20174;-76
2021/01/03 00:14:03;;;;;;;9.77;3.15;;;8.60;96.70;;;;;;5058061;28;20045;-76
2021/01/03 00:16:31;;;;;;;7.80;2.63;;;8.60;96.70;;;;;;5053637;28;20118;-76
2021/01/03 00:18:59;;;;;;;6.45;2.65;;;8.60;96.70;;;;;;5074460;28;20032;-76
2021/01/03 00:21:26;;;;;;;9.18;2.90;;;8.60;96.70;;;;;;5056545;28;20059;-76
2021/01/03 00:23:54;;;;;;;7.68;3.00;;;8.50;96.70;;;;;;5061039;28;20666;-76
2021/01/03 00:26:22;;;;;;;8.35;2.75;;;8.50;96.70;;;;;;5057025;28;20045;-76
2021/01/03 00:28:49;;;;;;;7.20;2.92;;;8.50;96.70;;;;;;5059677;28;20064;-76
2021/01/03 00:31:22;;;;;;;6.55;3.17;;;8.40;96.70;;;;;;5060613;28;20044;-76
2021/01/03 00:33:50;;;;;;;6.35;2.40;;;8.40;96.70;;;;;;5059368;28;20520;-76
2021/01/03 00:36:18;;;;;;;7.38;2.55;;;8.40;96.70;;;;;;5062563;28;20037;-77
2021/01/03 00:38:45;;;;;;;7.80;2.60;;;8.40;96.70;;;;;;5064456;28;20049;-76
2021/01/03 00:41:13;;;;;;;6.20;2.13;;;8.30;96.70;;;;;;5062843;28;20049;-76
2021/01/03 00:43:40;;;;;;;6.03;2.35;;;8.30;96.70;;;;;;5059009;28;20055;-76
2021/01/03 00:46:07;;;;;;;6.78;2.00;;;8.20;96.70;;;;;;5061123;28;20049;-76
2021/01/03 00:48:34;;;;;;;4.47;2.10;;;8.20;96.70;;;;;;5056905;28;20037;-76
2021/01/03 00:51:03;;;;;;;6.20;2.20;;;8.20;96.70;;;;;;5053580;28;20048;-76
2021/01/03 00:53:30;;;;;;;6.22;1.70;;;8.30;96.70;;;;;;5070251;28;20445;-76
2021/01/03 00:55:57;;;;;;;5.43;1.73;;;8.20;96.70;;;;;;5061115;28;20044;-77
2021/01/03 00:58:24;;;;;;;7.72;1.90;;;8.20;96.70;;;;;;5069127;28;20774;-76
2021/01/03 01:00:51;;;;;;;6.82;2.25;;;8.10;96.70;;;;;;5062977;28;20068;-76
2021/01/03 01:03:21;;;;;;;4.70;1.95;;;8.10;96.70;;;;;;5062630;28;20037;-76
2021/01/03 01:05:49;;;;;;;4.93;1.50;;;8.10;96.70;;;;;;5065166;28;20502;-71
2021/01/03 01:08:17;;;;;;;7.75;1.75;;;8.10;96.70;;;;;;5055294;28;20122;-71
2021/01/03 01:10:45;;;;;;;7.45;1.10;;;8.00;96.70;;;;;;5060626;28;20056;-71
2021/01/03 01:13:12;;;;;;;5.60;1.50;;;8.00;96.70;;;;;;5058407;28;20506;-70
2021/01/03 01:15:39;;;;;;;6.53;1.55;;;7.90;96.70;;;;;;5049966;28;20048;-70
2021/01/03 01:18:06;;;;;;;6.22;1.40;;;8.00;96.70;;;;;;5059411;28;20356;-70
2021/01/03 01:20:36;;;;;;;7.60;1.83;;;8.00;96.70;;;;;;5054857;28;20525;-70
2021/01/03 01:23:04;;;;;;;5.63;1.30;;;7.90;96.70;;;;;;5060142;28;20032;-71
2021/01/03 01:25:34;;;;;;;3.08;1.73;;;7.70;96.70;;;;;;5055304;28;20079;-71
2021/01/03 01:28:01;;;;;;;4.85;1.00;;;7.60;96.70;;;;;;5061491;28;20040;-70
2021/01/03 01:30:30;;;;;;;4.15;1.17;;;7.70;96.70;;;;;;5055621;28;20239;-70
2021/01/03 01:32:58;;;;;;;5.65;2.00;;;7.70;96.70;;;;;;5053156;28;20047;-70
2021/01/03 01:35:28;;;;;;;5.63;1.40;;;7.60;96.70;;;;;;5055121;28;20143;-71
2021/01/03 01:37:56;;;;;;;4.35;1.05;;;7.60;96.70;;;;;;5053217;28;20044;-70
2021/01/03 01:40:27;;;;;;;6.53;1.70;;;7.60;96.70;;;;;;5065389;28;20052;-71
2021/01/03 01:42:55;;;;;;;6.10;1.42;;;7.60;96.70;;;;;;5058849;28;20048;-70
2021/01/03 01:45:26;;;;;;;4.18;1.38;;;7.40;96.70;;;;;;5056497;28;20087;-70
2021/01/03 01:47:59;;;;;;;8.30;1.45;;;7.40;96.70;;;;;;5054725;28;20489;-70
2021/01/03 01:50:34;;;;;;;7.57;1.67;;;7.30;96.70;;;;;;5055431;28;20438;-70
2021/01/03 01:53:04;;;;;;;5.47;1.50;;;7.40;96.70;;;;;;5053596;28;20076;-70
2021/01/03 01:55:34;;;;;;;4.95;1.50;;;7.40;96.70;;;;;;5056065;28;20123;-71
2021/01/03 01:58:10;;;;;;;8.00;1.45;;;7.50;96.70;;;;;;5055581;28;20688;-71
2021/01/03 02:00:39;;;;;;;3.72;1.25;;;7.50;96.70;;;;;;5056753;28;20102;-71
2021/01/03 02:03:15;;;;;;;7.55;1.55;;;7.50;96.70;;;;;;5056294;28;20118;-70
2021/01/03 02:05:48;;;;;;;3.33;0.98;;;7.50;96.70;;;;;;5059283;28;20044;-71
2021/01/03 02:08:22;;;;;;;5.38;1.00;;;7.50;96.70;;;;;;5065147;28;20041;-71
2021/01/03 02:10:50;;;;;;;5.32;1.00;;;7.50;96.70;;;;;;5061070;28;20078;-71
2021/01/03 02:13:22;;;;;;;5.47;1.75;;;7.50;96.70;;;;;;5053357;28;20045;-70
2021/01/03 02:15:52;;;;;;;5.05;1.23;;;7.60;96.70;;;;;;5057125;28;20086;-70
2021/01/03 02:18:20;;;;;;;7.25;1.55;;;7.80;96.70;;;;;;5063114;28;20056;-70
2021/01/03 02:20:58;;;;;;;6.85;1.52;;;7.80;96.70;;;;;;5068894;28;20040;-70
2021/01/03 02:23:36;;;;;;;8.20;2.35;;;7.90;96.70;;;;;;5058064;28;20144;-70
2021/01/03 02:26:06;;;;;;;8.70;1.83;;;7.80;96.70;;;;;;5055795;28;20517;-71
2021/01/03 02:28:38;;;;;;;5.65;1.80;;;7.70;96.70;;;;;;5060446;28;20041;-70
2021/01/03 02:31:06;;;;;;;4.82;1.40;;;7.60;96.70;;;;;;5058753;28;20191;-70
2021/01/03 02:33:37;;;;;;;6.60;1.55;;;7.50;96.70;;;;;;5056188;28;20079;-70
2021/01/03 02:36:11;;;;;;;9.57;1.58;;;7.60;96.70;;;;;;5064770;28;20040;-70
2021/01/03 02:38:41;;;;;;;6.78;1.90;;;7.60;96.70;;;;;;5064020;28;20516;-70
2021/01/03 02:41:10;;;;;;;4.72;1.15;;;7.70;96.70;;;;;;5058672;28;20041;-70
2021/01/03 02:43:37;;;;;;;6.38;1.45;;;7.60;96.70;;;;;;5061773;28;20040;-70
2021/01/03 02:46:04;;;;;;;3.35;0.85;;;7.70;96.70;;;;;;5072636;28;20456;-71
2021/01/03 02:48:32;;;;;;;2.10;0.90;;;7.70;96.70;;;;;;5062797;28;20510;-71
2021/01/03 02:50:59;;;;;;;4.47;0.95;;;7.80;96.70;;;;;;5057619;28;20040;-71
2021/01/03 02:53:26;;;;;;;7.07;1.33;;;7.90;96.70;;;;;;5063705;28;20098;-71
2021/01/03 02:55:54;;;;;;;7.85;1.70;;;7.90;96.70;;;;;;5061026;28;20448;-70
2021/01/03 02:58:22;;;;;;;4.65;1.13;;;7.90;96.70;;;;;;5057969;28;20044;-70
2021/01/03 03:00:50;;;;;;;6.15;1.10;;;8.00;96.70;;;;;;5075087;28;20569;-70
2021/01/03 03:03:17;;;;;;;6.82;1.65;;;8.00;96.70;;;;;;5052655;28;20048;-70
2021/01/03 03:05:44;;;;;;;6.00;1.55;;;8.00;96.70;;;;;;5044533;28;20931;-70
2021/01/03 03:08:11;;;;;;;7.40;1.55;;;8.00;96.70;;;;;;5067913;28;20036;-71
2021/01/03 03:10:39;;;;;;;6.43;1.50;;;8.00;96.70;;;;;;5059995;28;20123;-72
2021/01/03 03:13:06;;;;;;;4.43;1.27;;;7.90;96.70;;;;;;5065805;28;20033;-70
2021/01/03 03:15:34;;;;;;;4.32;1.00;;;7.80;96.70;;;;;;5052464;28;20045;-70
2021/01/03 03:18:02;;;;;;;7.00;1.15;;;7.90;96.70;;;;;;5044857;28;20074;-70
2021/01/03 03:20:29;;;;;;;5.95;1.30;;;7.90;96.70;;;;;;5056216;28;20049;-71
2021/01/03 03:22:57;;;;;;;8.40;1.13;;;8.00;96.70;;;;;;5066770;28;20309;-71
2021/01/03 03:25:24;;;;;;;6.22;1.60;;;8.00;96.70;;;;;;5058719;28;20045;-70
2021/01/03 03:27:51;;;;;;;5.60;1.60;;;7.90;96.70;;;;;;5060875;28;20047;-70
2021/01/03 03:30:21;;;;;;;4.85;1.45;;;8.00;96.70;;;;;;5073861;28;20072;-71
2021/01/03 03:32:52;;;;;;;6.18;1.85;;;8.10;96.70;;;;;;5072924;28;20139;-71
2021/01/03 03:35:22;;;;;;;4.43;1.50;;;8.20;96.70;;;;;;5064334;28;20117;-70
2021/01/03 03:37:49;;;;;;;5.68;1.48;;;8.20;96.70;;;;;;5058599;28;20478;-70
2021/01/03 03:40:17;;;;;;;3.72;1.23;;;8.20;96.70;;;;;;5062937;28;20040;-71
2021/01/03 03:42:44;;;;;;;5.60;2.15;;;8.30;96.70;;;;;;5059964;28;20037;-71
2021/01/03 03:45:13;;;;;;;4.78;1.83;;;8.30;96.70;;;;;;5059707;28;20048;-71
2021/01/03 03:47:40;;;;;;;5.53;1.80;;;8.20;96.70;;;;;;5060975;28;20128;-70
2021/01/03 03:50:15;;;;;;;7.13;1.55;;;8.20;96.70;;;;;;5061117;28;20056;-70
2021/01/03 03:52:42;;;;;;;5.93;1.63;;;8.30;96.70;;;;;;5055271;28;20075;-71
2021/01/03 03:55:11;;;;;;;5.55;1.45;;;8.30;96.70;;;;;;5058669;28;20033;-70
2021/01/03 03:57:38;;;;;;;5.63;1.45;;;8.30;96.70;;;;;;5058781;28;20533;-70
2021/01/03 04:00:08;;;;;;;5.95;1.42;;;8.30;96.70;;;;;;5063614;28;20044;-70
2021/01/03 04:02:40;;;;;;;8.18;1.27;;;8.30;96.70;;;;;;5057433;28;20044;-70
2021/01/03 04:05:10;;;;;;;7.30;1.70;;;8.30;96.70;;;;;;5060356;28;20064;-71
2021/01/03 04:07:38;;;;;;;4.97;1.30;;;8.20;96.70;;;;;;5057392;28;20083;-70
2021/01/03 04:10:06;;;;;;;5.53;1.70;;;8.30;96.70;;;;;;5060164;28;20031;-70
2021/01/03 04:12:34;;;;;;;4.70;1.00;;;8.30;96.70;;;;;;5059328;28;20049;-70
2021/01/03 04:15:01;;;;;;;7.60;1.08;;;8.20;96.70;;;;;;5043704;28;20371;-70
2021/01/03 04:17:28;;;;;;;5.15;1.05;;;8.20;96.70;;;;;;5059904;28;20051;-70
2021/01/03 04:19:55;;;;;;;4.53;0.98;;;8.20;96.70;;;;;;5057146;28;20494;-71
2021/01/03 04:22:27;;;;;;;7.95;0.88;;;8.20;96.70;;;;;;5055932;28;20060;-70
2021/01/03 04:24:55;;;;;;;2.50;0.90;;;8.20;96.70;;;;;;5060718;28;20082;-71
2021/01/03 04:27:22;;;;;;;6.18;1.17;;;8.20;96.70;;;;;;5059687;28;20129;-70
2021/01/03 04:29:49;;;;;;;3.15;1.10;;;8.20;96.70;;;;;;5067767;28;20489;-71
2021/01/03 04:32:17;;;;;;;2.70;0.90;;;8.20;96.70;;;;;;5060464;28;20032;-70
2021/01/03 04:34:44;;;;;;;5.15;1.00;;;8.20;96.70;;;;;;5067620;28;20142;-70
2021/01/03 04:37:16;;;;;;;5.15;1.00;;;8.10;96.70;;;;;;5056121;28;20036;-70
2021/01/03 04:39:44;;;;;;;2.78;0.80;;;8.10;96.70;;;;;;5054448;28;20812;-70
2021/01/03 04:42:16;;;;;;;4.53;1.02;;;8.10;96.70;;;;;;5060316;28;20072;-70
2021/01/03 04:44:45;;;;;;;6.60;1.35;;;8.10;96.70;;;;;;5058348;28;20454;-70
2021/01/03 04:47:24;;;;;;;5.30;0.85;;;8.10;96.70;;;;;;5056063;28;20045;-71
2021/01/03 04:50:02;;;;;;;3.72;0.90;;;8.00;96.70;;;;;;5071048;28;20529;-71
2021/01/03 04:52:48;;;;;;;5.50;0.70;;;8.00;96.70;;;;;;5057941;28;20037;-70
2021/01/03 04:55:20;;;;;;;6.22;1.00;;;8.10;96.70;;;;;;5060301;28;20044;-71
2021/01/03 04:57:58;;;;;;;3.50;1.10;;;8.00;96.70;;;;;;5058635;28;20050;-70
2021/01/03 05:00:32;;;;;;;4.57;1.42;;;8.00;96.70;;;;;;5057956;28;20083;-69
2021/01/03 05:03:28;;;;;;;7.65;1.25;;;7.90;96.70;;;;;;5055496;28;20037;-71
2021/01/03 05:06:02;;;;;;;4.38;1.00;;;8.00;96.70;;;;;;5068547;28;20049;-71
2021/01/03 05:08:34;;;;;;;4.05;1.17;;;7.90;96.70;;;;;;5064325;28;20047;-70
2021/01/03 05:11:06;;;;;;;2.75;0.60;;;7.90;96.70;;;;;;5036560;28;20048;-70
2021/01/03 05:13:48;;;;;;;4.20;0.70;;;7.90;96.70;;;;;;5055568;28;20056;-70
2021/01/03 05:16:17;;;;;;;4.20;1.20;;;8.00;96.70;;;;;;5055215;28;20048;-70
2021/01/03 05:18:44;;;;;;;6.32;1.15;;;7.90;96.70;;;;;;5054691;28;20036;-71
2021/01/03 05:21:12;;;;;;;3.53;0.93;;;7.80;96.70;;;;;;5056429;28;20176;-70
2021/01/03 05:23:56;;;;;;;4.45;0.98;;;7.80;96.70;;;;;;5054533;28;20048;-70
2021/01/03 05:26:29;;;;;;;3.50;0.90;;;7.90;96.70;;;;;;5055741;28;20650;-71
2021/01/03 05:28:57;;;;;;;9.70;1.23;;;7.90;96.70;;;;;;5053849;28;20048;-70
2021/01/03 05:31:24;;;;;;;3.67;1.05;;;7.90;96.70;;;;;;5061052;28;20048;-70
2021/01/03 05:33:55;;;;;;;5.78;1.20;;;7.90;96.70;;;;;;5057834;28;20119;-71
2021/01/03 05:36:29;;;;;;;2.50;0.70;;;7.90;96.70;;;;;;5052954;28;20621;-70
2021/01/03 05:38:57;;;;;;;4.53;0.70;;;7.90;96.70;;;;;;5055482;28;20123;-70
2021/01/03 05:41:38;;;;;;;3.90;0.77;;;7.80;96.70;;;;;;5055134;28;20651;-70
2021/01/03 05:44:11;;;;;;;4.93;0.80;;;7.80;96.70;;;;;;5059541;28;20064;-71
2021/01/03 05:46:43;;;;;;;6.25;0.98;;;7.80;96.70;;;;;;5059545;28;20094;-70
2021/01/03 05:49:14;;;;;;;3.22;0.70;;;7.80;96.70;;;;;;5057280;28;20043;-71
2021/01/03 05:51:44;;;;;;;6.30;1.00;;;7.80;96.70;;;;;;5058958;28;20094;-70
2021/01/03 05:54:15;;;;;;;5.40;0.90;;;7.80;96.70;;;;;;5059989;28;20124;-71
2021/01/03 05:56:44;;;;;;;4.85;0.60;;;7.80;96.70;;;;;;5060205;28;20044;-71
2021/01/03 05:59:15;;;;;;;4.50;0.70;;;7.80;96.70;;;;;;5058769;28;20466;-70
2021/01/03 06:01:42;;;;;;;3.90;1.45;;;7.80;96.70;;;;;;5061212;28;20089;-70
2021/01/03 06:04:11;;;;;;;5.65;0.77;;;7.90;96.70;;;;;;5058041;28;20040;-70
2021/01/03 06:07:06;;;;;;;3.67;0.77;;;8.00;96.70;;;;;;5064211;28;20052;-70
2021/01/03 06:09:36;;;;;;;4.07;1.52;;;8.00;96.70;;;;;;5054196;28;20072;-70
2021/01/03 06:12:12;;;;;;;4.43;1.13;;;8.10;96.70;;;;;;5054413;28;20045;-70
2021/01/03 06:14:39;;;;;;;2.33;0.60;;;8.10;96.70;;;;;;5057594;28;20067;-69
2021/01/03 06:17:17;;;;;;;4.50;1.05;;;8.10;96.70;;;;;;5063878;28;20069;-70
2021/01/03 06:19:48;;;;;;;6.38;1.65;;;8.00;96.70;;;;;;5041905;28;20355;-71
2021/01/03 06:22:36;;;;;;;4.20;0.90;;;7.90;96.70;;;;;;5056609;28;20468;-70
2021/01/03 06:25:21;;;;;;;3.55;0.75;;;7.90;96.70;;;;;;5041959;28;20047;-70
2021/01/03 06:27:49;;;;;;;5.70;1.17;;;7.90;96.70;;;;;;5054892;28;20036;-70
2021/01/03 06:30:21;;;;;;;4.95;1.10;;;7.80;96.70;;;;;;5067053;28;20897;-70
2021/01/03 06:33:11;;;;;;;2.97;1.05;;;7.80;96.70;;;;;;5054528;28;20486;-70
2021/01/03 06:35:41;;;;;;;3.83;1.08;;;7.80;96.70;;;;;;5057352;28;20072;-70
2021/01/03 06:38:15;;;;;;;3.20;0.82;;;7.80;96.70;;;;;;5057689;28;20179;-70
2021/01/03 06:40:51;;;;;;;5.32;1.02;;;7.80;96.70;;;;;;5057418;28;20045;-70
2021/01/03 06:43:35;;;;;;;5.20;1.15;;;7.80;96.70;;;;;;5055076;28;20064;-70
2021/01/03 06:46:25;;;;;;;5.22;1.25;;;7.80;96.70;;;;;;5073071;28;20483;-70
2021/01/03 06:49:17;;;;;;;3.53;1.13;;;7.80;96.70;;;;;;5059738;28;20072;-71
2021/01/03 06:52:01;;;;;;;3.45;1.00;;;7.80;96.70;;;;;;5058687;28;20462;-71
2021/01/03 06:54:51;;;;;;;4.90;0.95;;;7.80;96.70;;;;;;5062540;28;20539;-71
2021/01/03 06:57:46;;;;;;;4.40;0.90;;;7.80;96.70;;;;;;5059948;28;20040;-70
2021/01/03 07:00:19;;;;;;;5.18;1.27;;;7.70;96.70;;;;;;5070797;28;20051;-70
2021/01/03 07:02:50;;;;;;;4.50;1.13;;;7.70;96.70;;;;;;5062988;28;20044;-70
2021/01/03 07:05:18;;;;;;;3.17;1.13;;;7.70;96.70;;;;;;5057625;28;20041;-70
2021/01/03 07:07:58;;;;;;;7.85;1.17;;;7.70;96.70;;;;;;5063915;28;20041;-71
2021/01/03 07:10:34;;;;;;;2.72;1.27;;;7.80;96.70;;;;;;5059774;28;20684;-70
2021/01/03 07:13:02;;;;;;;5.78;1.75;;;7.80;96.70;;;;;;5062389;28;20032;-70
2021/01/03 07:15:40;;;;;;;8.98;1.50;;;7.80;96.70;;;;;;5058472;28;20044;-72
2021/01/03 07:18:21;;;;;;;4.32;0.70;;;7.80;96.70;;;;;;5051624;28;20144;-71
2021/01/03 07:20:54;;;;;;;4.15;0.88;;;7.80;96.70;;;;;;5060026;28;20048;-71
2021/01/03 07:23:30;;;;;;;4.18;0.73;;;7.80;96.70;;;;;;5065937;28;20048;-70
2021/01/03 07:26:07;;;;;;;3.15;0.73;;;7.80;96.70;;;;;;5053369;28;20037;-71
2021/01/03 07:28:34;;;;;;;;;;;7.80;96.70;;;;;;5056189;28;20137;-70
2021/01/03 07:31:10;;;;;;;2.53;0.70;;;7.80;96.70;;;;;;5056898;28;19931;-70
2021/01/03 07:33:46;;;;;;;3.72;0.75;;;7.80;96.70;;;;;;5060434;28;20080;-70
2021/01/03 07:36:18;;;;;;;;;;;7.80;96.70;;;;;;5060032;28;20045;-70
2021/01/03 07:39:05;;;;;;;1.92;0.68;;;7.80;96.70;;;;;;5064387;28;20097;-70
2021/01/03 07:41:32;;;;;;;2.53;0.82;;;7.80;96.70;;;;;;5054919;28;20044;-71
2021/01/03 07:44:01;;;;;;;2.03;0.63;;;7.90;96.70;;;;;;5059709;28;20041;-70
2021/01/03 07:46:48;;;;;;;3.75;0.70;;;7.90;96.70;;;;;;5053240;28;20048;-71
2021/01/03 07:49:34;;;;;;;4.53;0.93;;;7.90;96.70;;;;;;5057483;28;20419;-71
2021/01/03 07:52:09;;;;;;;2.20;0.90;;;7.90;96.70;;;;;;5050833;28;20128;-70
2021/01/03 07:54:36;;;;;;;2.05;0.88;;;8.00;96.70;;;;;;5049243;28;20033;-72
2021/01/03 07:57:08;;;;;;;3.78;0.70;;;8.10;96.70;;;;;;5062374;28;20464;-70
2021/01/03 07:59:35;;;;;;;2.38;1.00;;;8.10;96.70;;;;;;5058730;28;20036;-71
2021/01/03 08:02:04;;;;;;;5.32;1.50;;;8.10;96.70;;;;;;5060954;28;20050;-70
2021/01/03 08:04:33;;;;;;;4.00;1.35;;;8.10;96.70;;;;;;5064103;28;20044;-70
2021/01/03 08:07:04;;;;;;;5.00;1.40;;;8.20;96.70;;;;;;5061771;28;20051;-70
2021/01/03 08:09:32;;;;;;;3.88;1.30;;;8.30;96.70;;;;;;5059126;28;20135;-70
2021/01/03 08:12:09;;;;;;;4.53;1.67;;;8.30;96.70;;;;;;5061385;28;20205;-70
2021/01/03 08:14:40;;;;;;;3.80;1.27;;;8.30;96.70;;;;;;5069694;28;20041;-70
2021/01/03 08:17:19;;;;;;;2.08;0.75;;;8.40;96.70;;;;;;5055050;28;20058;-71
2021/01/03 08:19:46;;;;;;;1.80;0.60;;;8.40;96.70;;;;;;5043712;28;20060;-70
2021/01/03 08:22:23;;;;;;;7.63;1.25;;;8.40;96.70;;;;;;5059107;28;20040;-70
2021/01/03 08:24:52;;;;;;;;;;;8.40;96.70;;;;;;5061246;28;20577;-70
2021/01/03 08:27:24;;;;;;;3.42;1.13;;;8.50;96.70;;;;;;5070738;28;19947;-70
2021/01/03 08:29:59;;;;;;;2.03;0.75;;;8.50;96.70;;;;;;5059021;28;20036;-70
2021/01/03 08:32:31;;;;;;;4.00;1.00;;;8.40;96.70;;;;;;5064515;28;20044;-75
2021/01/03 08:35:00;;;;;;;1.80;0.68;;;8.40;96.70;;;;;;5058980;28;20052;-75
2021/01/03 08:37:35;;;;;;;1.92;0.75;;;8.50;96.70;;;;;;5057946;28;20037;-75
2021/01/03 08:40:14;;;;;;;3.30;0.93;;;8.50;96.70;;;;;;5065848;28;20032;-75
2021/01/03 08:42:44;;;;;;;2.25;1.00;;;8.50;96.70;;;;;;5043117;28;20131;-75
2021/01/03 08:45:18;;;;;;;3.10;1.27;;;8.60;96.70;;;;;;5060793;28;20063;-76
2021/01/03 08:47:46;;;;;;;3.33;1.20;;;8.60;96.70;;;;;;5052317;28;20045;-75
2021/01/03 08:50:18;;;;;;;2.28;1.13;;;8.70;96.70;;;;;;5063891;28;20784;-75
2021/01/03 08:52:54;;;;;;;2.13;0.80;;;8.80;96.70;;;;;;5059599;28;20057;-76
2021/01/03 08:55:28;;;;;;;2.67;0.80;;;8.80;96.70;;;;;;5059563;28;20029;-79
2021/01/03 08:57:58;;;;;;;3.50;1.10;;;8.90;96.70;;;;;;5052555;28;20086;-75
2021/01/03 09:00:29;;;;;;;2.83;0.98;;;9.00;96.70;;;;;;5052029;28;20044;-75
2021/01/03 09:03:00;;;;;;;3.17;0.70;;;9.20;96.70;;;;;;5055863;28;20048;-76
2021/01/03 09:05:31;;;;;;;6.13;2.67;;;9.30;96.70;;;;;;5051592;28;20041;-75
2021/01/03 09:07:59;;;;;;;3.38;1.42;;;9.40;96.70;;;;;;5054519;28;20511;-75
2021/01/03 09:10:31;;;;;;;4.18;1.45;;;9.50;96.70;;;;;;5050138;28;20041;-75
2021/01/03 09:13:12;;;;;;;2.10;0.90;;;9.50;96.70;;;;;;5051194;28;20071;-75
2021/01/03 09:15:44;;;;;;;2.25;0.98;;;9.60;96.70;;;;;;5047426;28;20044;-75
2021/01/03 09:18:27;;;;;;;2.63;0.80;;;9.70;96.70;;;;;;5055665;28;20043;-75
2021/01/03 09:21:02;;;;;;;2.20;0.88;;;9.80;96.70;;;;;;5053646;28;20524;-75
2021/01/03 09:23:31;;;;;;;3.08;0.82;;;9.80;96.70;;;;;;5056524;28;20041;-75
2021/01/03 09:25:59;;;;;;;2.88;1.08;;;9.90;96.70;;;;;;5057418;28;20123;-75
2021/01/03 09:28:29;;;;;;;2.10;0.95;;;9.90;96.70;;;;;;5055461;28;20044;-75
2021/01/03 09:31:15;;;;;;;6.13;1.15;;;10.10;96.70;;;;;;5056714;28;20048;-75
2021/01/03 09:33:48;;;;;;;3.00;1.25;;;10.20;96.70;;;;;;5057778;28;20048;-76
2021/01/03 09:36:26;;;;;;;3.00;1.13;;;10.20;96.70;;;;;;5059489;28;20086;-72
2021/01/03 09:39:20;;;;;;;4.07;0.93;;;10.30;96.70;;;;;;5054701;28;22076;-71
2021/01/03 09:42:04;;;;;;;4.90;1.13;;;10.30;96.70;;;;;;5055823;28;20058;-72
2021/01/03 09:44:39;;;;;;;2.33;1.02;;;10.30;96.70;;;;;;5056957;28;20049;-72
2021/01/03 09:47:10;;;;;;;1.92;0.65;;;10.30;96.70;;;;;;5057582;28;20048;-72
2021/01/03 09:49:43;;;;;;;2.50;0.93;;;10.30;96.70;;;;;;5058109;28;20393;-73
2021/01/03 09:52:26;;;;;;;3.03;1.00;;;10.40;96.70;;;;;;5060829;28;20552;-72
2021/01/03 09:55:04;;;;;;;3.85;1.60;;;10.50;96.70;;;;;;5056642;28;20050;-73
2021/01/03 09:57:38;;;;;;;3.20;1.70;;;10.60;96.70;;;;;;5050682;28;20068;-72
2021/01/03 10:00:09;;;;;;;3.17;1.40;;;10.80;96.70;;;;;;5058420;28;20052;-72
2021/01/03 10:02:36;;;;;;;3.28;1.30;;;11.00;96.70;;;;;;5060573;28;20375;-72
2021/01/03 10:05:19;;;;;;;2.55;1.20;;;11.20;96.70;;;;;;5053259;28;20490;-72
2021/01/03 10:07:56;;;;;;;1.63;0.65;;;11.30;96.70;;;;;;5054814;28;20044;-73
2021/01/03 10:10:40;;;;;;;1.80;0.90;;;11.50;96.70;;;;;;5050567;28;20289;-73
2021/01/03 10:13:09;;;;;;;3.08;1.20;;;11.60;96.70;;;;;;5052818;28;20777;-73
2021/01/03 10:15:38;;;;;;;4.90;1.10;;;11.70;96.70;;;;;;5050967;28;20124;-73
2021/01/03 10:18:11;;;;;;;3.83;1.15;;;11.70;96.70;;;;;;5049453;28;20086;-74
2021/01/03 10:20:44;;;;;;;2.67;1.30;;;11.70;96.70;;;;;;5054481;28;20040;-73
2021/01/03 10:23:27;;;;;;;4.00;1.15;;;11.70;96.70;;;;;;5054762;28;20047;-72
2021/01/03 10:25:55;;;;;;;1.90;0.90;;;11.80;96.70;;;;;;5058969;28;20668;-73
2021/01/03 10:28:22;;;;;;;5.50;1.00;;;11.90;96.70;;;;;;5054065;28;20517;-74
2021/01/03 10:30:50;;;;;;;3.97;1.30;;;11.90;96.70;;;;;;5055849;28;20072;-73
2021/01/03 10:33:21;;;;;;;2.10;0.70;;;11.90;96.70;;;;;;5061063;28;20044;-73
2021/01/03 10:35:50;;;;;;;2.45;0.68;;;12.00;96.70;;;;;;5062920;28;20047;-71
2021/01/03 10:38:18;;;;;;;3.00;0.80;;;12.00;96.70;;;;;;5058994;28;20042;-72
2021/01/03 10:40:45;;;;;;;3.90;0.70;;;12.00;96.70;;;;;;5061569;28;20139;-72
2021/01/03 10:43:12;;;;;;;1.77;0.60;;;11.80;96.70;;;;;;5062330;28;20068;-72
2021/01/03 10:45:40;;;;;;;2.30;0.68;;;11.60;96.70;;;;;;5059018;28;20076;-73
2021/01/03 10:48:08;;;;;;;3.30;1.20;;;11.60;96.70;;;;;;5063420;28;20039;-72
2021/01/03 10:50:35;;;;;;;3.67;1.25;;;11.50;96.70;;;;;;5061282;28;20036;-73
2021/01/03 10:53:03;;;;;;;2.60;0.90;;;11.30;96.70;;;;;;5063665;28;20528;-72
2021/01/03 10:55:31;;;;;;;1.55;0.82;;;11.30;96.70;;;;;;5065897;28;20150;-73
2021/01/03 10:57:58;;;;;;;2.97;0.80;;;11.20;96.70;;;;;;5055255;28;20113;-74
2021/01/03 11:00:26;;;;;;;4.18;0.85;;;11.20;96.70;;;;;;5036651;28;20053;-73
2021/01/03 11:02:53;;;;;;;2.97;1.00;;;11.30;96.70;;;;;;5064226;28;20037;-72
2021/01/03 11:05:20;;;;;;;2.30;0.90;;;11.40;96.70;;;;;;5058400;28;20115;-74
2021/01/03 11:07:48;;;;;;;3.38;1.13;;;11.50;96.70;;;;;;5060436;28;20060;-72
2021/01/03 11:10:16;;;;;;;3.90;1.38;;;11.60;96.70;;;;;;5058015;28;20125;-73
2021/01/03 11:12:43;;;;;;;2.70;0.82;;;11.70;96.70;;;;;;5061193;28;20492;-71
2021/01/03 11:15:14;;;;;;;2.50;1.30;;;11.70;96.70;;;;;;5058856;28;20047;-72
2021/01/03 11:17:53;;;;;;;3.42;1.45;;;11.70;96.70;;;;;;5046099;28;20151;-73
2021/01/03 11:20:21;;;;;;;3.85;1.30;;;11.70;96.70;;;;;;5060627;28;20052;-72
2021/01/03 11:22:48;;;;;;;1.42;0.90;;;11.70;96.70;;;;;;5063424;28;20413;-72
2021/01/03 11:25:17;;;;;;;3.13;0.98;;;11.60;96.70;;;;;;5057311;28;20155;-72
2021/01/03 11:27:44;;;;;;;2.25;0.80;;;11.60;96.70;;;;;;5062935;28;20056;-72
2021/01/03 11:30:12;;;;;;;3.55;1.38;;;11.60;96.70;;;;;;5059326;28;20421;-72
2021/01/03 11:32:43;;;;;;;2.33;1.00;;;11.60;96.70;;;;;;5076046;28;20056;-71
2021/01/03 11:35:12;;;;;;;2.38;1.20;;;11.50;96.70;;;;;;5056384;28;20462;-72
2021/01/03 11:37:40;;;;;;;5.53;2.92;;;11.50;96.70;;;;;;5060024;28;20056;-72
2021/01/03 11:40:09;;;;;;;4.85;2.63;;;11.40;96.70;;;;;;5057686;28;20055;-72
2021/01/03 11:42:39;;;;;;;4.20;2.17;;;11.40;96.70;;;;;;5060707;28;20040;-72
2021/01/03 11:45:09;;;;;;;5.35;1.40;;;11.30;96.70;;;;;;5062067;28;20043;-72
2021/01/03 11:47:37;;;;;;;3.70;1.67;;;11.40;96.70;;;;;;5061634;28;20044;-72
2021/01/03 11:50:08;;;;;;;5.15;2.30;;;11.40;96.70;;;;;;5057035;28;20036;-72
2021/01/03 11:52:35;;;;;;;3.65;1.90;;;11.40;96.70;;;;;;5059843;28;20604;-71
2021/01/03 11:55:06;;;;;;;4.97;2.25;;;11.40;96.70;;;;;;5046631;28;20442;-72
2021/01/03 11:57:34;;;;;;;5.55;1.67;;;11.30;96.70;;;;;;5061556;28;20131;-72
2021/01/03 12:00:03;;;;;;;3.22;1.63;;;11.40;96.70;;;;;;5061377;28;20070;-72
2021/01/03 12:02:38;;;;;;;4.43;2.22;;;11.40;96.70;;;;;;5059981;28;20043;-72
2021/01/03 12:05:08;;;;;;;3.92;1.02;;;11.40;96.70;;;;;;5056938;28;20166;-71
2021/01/03 12:07:36;;;;;;;3.72;1.58;;;11.30;96.70;;;;;;5060805;28;20040;-71
2021/01/03 12:10:06;;;;;;;3.63;1.90;;;11.40;96.70;;;;;;5058787;28;20040;-73
2021/01/03 12:12:33;;;;;;;4.13;1.40;;;11.40;96.70;;;;;;5061540;28;20045;-71
2021/01/03 12:15:01;;;;;;;2.17;0.88;;;11.40;96.70;;;;;;5057906;28;20044;-72
2021/01/03 12:17:29;;;;;;;2.17;0.98;;;11.40;96.70;;;;;;5060807;28;20048;-71
2021/01/03 12:19:56;;;;;;;5.78;1.90;;;11.30;96.70;;;;;;5062513;28;20060;-73
2021/01/03 12:22:23;;;;;;;4.43;1.80;;;11.30;96.70;;;;;;5067233;28;20059;-72
2021/01/03 12:24:50;;;;;;;2.30;1.00;;;11.40;96.70;;;;;;5075097;28;20049;-72
2021/01/03 12:27:20;;;;;;;4.38;1.40;;;11.30;96.70;;;;;;5068388;28;20045;-71
2021/01/03 12:29:48;;;;;;;3.80;1.70;;;11.30;96.70;;;;;;5062793;28;21245;-71
2021/01/03 12:32:16;;;;;;;3.85;1.83;;;11.30;96.70;;;;;;5059747;28;20137;-73
2021/01/03 12:34:44;;;;;;;5.82;3.25;;;11.30;96.70;;;;;;5061648;28;20049;-73
2021/01/03 12:37:14;;;;;;;3.47;1.80;;;11.30;96.70;;;;;;5057612;28;20145;-72
2021/01/03 12:39:42;;;;;;;3.20;1.30;;;11.30;96.70;;;;;;5056998;28;20151;-72
2021/01/03 12:42:12;;;;;;;3.10;1.50;;;11.20;96.70;;;;;;5054526;28;20048;-71
2021/01/03 12:44:39;;;;;;;2.78;1.73;;;11.20;96.70;;;;;;5055222;28;20544;-72
2021/01/03 12:47:07;;;;;;;5.45;2.50;;;11.20;96.70;;;;;;5073516;28;20044;-72
2021/01/03 12:49:35;;;;;;;3.28;1.63;;;11.30;96.70;;;;;;5059956;28;20035;-71
2021/01/03 12:52:03;;;;;;;3.00;1.55;;;11.30;96.70;;;;;;5059791;28;20405;-72
2021/01/03 12:54:31;;;;;;;2.28;1.35;;;11.20;96.70;;;;;;5060016;28;20039;-72
2021/01/03 12:56:59;;;;;;;2.15;0.88;;;11.30;96.70;;;;;;5057057;28;20138;-71
2021/01/03 12:59:28;;;;;;;2.80;1.25;;;11.30;96.70;;;;;;5076234;28;20068;-72
2021/01/03 13:01:55;;;;;;;4.28;1.75;;;11.20;96.70;;;;;;5069269;28;20100;-72
2021/01/03 13:04:43;;;;;;;4.88;2.05;;;11.20;96.70;;;;;;5058187;28;20171;-72
2021/01/03 13:07:11;;;;;;;3.65;1.90;;;11.20;96.70;;;;;;5056794;28;20090;-71
2021/01/03 13:09:38;;;;;;;5.85;1.80;;;11.20;96.70;;;;;;5059428;28;20036;-73
2021/01/03 13:12:06;;;;;;;4.18;1.50;;;11.20;96.70;;;;;;5054198;28;20115;-72
2021/01/03 13:14:33;;;;;;;3.30;2.50;;;11.20;96.70;;;;;;5071307;28;20153;-71
2021/01/03 13:17:01;;;;;;;4.50;2.85;;;11.10;96.70;;;;;;5056414;28;20537;-71